PROFILE

 METAR AND TAF INFORMATION
ADDS - METARS form results

(1552 UTC 20 June 2019)
http://aviationweather.gov/metar/data/
 
LXGB 201520Z 27014KT 9999 FEW050 24/14 Q1014 NOSIG RMK BLU BLU
TAF LXGB 201346Z 2015/2022 25016G26KT 9999 FEW050 PROB30 TEMPO 2015/2016 20016G26KT 530001 BECMG 2017/2020 26012KT 

 AIRPORT MAP

 RUNWAY INFORMATION
Runway 09 Runway length 6000 ft Runway width 150 ft
Runway elevation 10 ft Runway displaced threshold 302 ft Runway heading 88
Runway 27 Runway length 6000 ft Runway width 150 ft
Runway elevation 11 ft Runway displaced threshold 368 ft Runway heading 268

 AIRPORT FREQUENCIES
Type A/D Name APP Frequency 122.8 MHZ
Type OPS Name GIB TALKDO Frequency 130.4 MHZ
Type TWR Name TWR Frequency 131.2 MHZ

 AIRPORT NEAR NAVIGATION AIDS
Type TACAN Name Gibraltar Frequency 113600 KHZ